Time;durP1;ratioP1;P1;durP2;ratioP2;P2;SDS_P1;SDS_P2;PMS_P1;PMS_P2;Temp;Humidity;BMP_temperature;BMP_pressure;BME280_temperature;BME280_humidity;BME280_pressure;Samples;Min_cycle;Max_cycle;Signal;HPM_P1;HPM_P2
2023/10/14 00:01:34;;;;;;;3.50;2.20;;;24.40;52.00;;;;;;5001823;28;20489;-69
2023/10/14 00:04:04;;;;;;;2.90;1.80;;;24.40;52.00;;;;;;5002338;28;20029;-68
2023/10/14 00:06:34;;;;;;;2.63;1.70;;;24.40;52.00;;;;;;5001836;28;20034;-69
2023/10/14 00:09:01;;;;;;;3.00;1.92;;;24.40;52.00;;;;;;5001260;28;20495;-68
2023/10/14 00:11:35;;;;;;;2.70;1.80;;;24.40;52.00;;;;;;5002276;28;20023;-69
2023/10/14 00:14:14;;;;;;;2.85;1.80;;;24.40;52.00;;;;;;5002403;28;20814;-68
2023/10/14 00:16:42;;;;;;;2.85;1.60;;;24.40;52.10;;;;;;5001200;28;20088;-70
2023/10/14 00:19:09;;;;;;;2.58;1.92;;;24.40;52.10;;;;;;5000995;28;20442;-67
2023/10/14 00:21:35;;;;;;;2.70;1.80;;;24.40;52.10;;;;;;5002134;28;20022;-67
2023/10/14 00:24:06;;;;;;;3.63;1.70;;;24.40;52.10;;;;;;5002768;28;20038;-69
2023/10/14 00:26:33;;;;;;;2.92;1.73;;;24.40;52.10;;;;;;5002805;28;20065;-69
2023/10/14 00:31:40;;;;;;;2.20;1.63;;;24.40;52.10;;;;;;5001837;28;20034;-70
2023/10/14 00:34:06;;;;;;;2.88;1.73;;;24.40;52.10;;;;;;5001587;28;20037;-68
2023/10/14 00:36:34;;;;;;;2.33;1.52;;;24.40;52.10;;;;;;5000194;28;20532;-72
2023/10/14 00:39:00;;;;;;;2.38;1.77;;;24.30;52.10;;;;;;5002242;28;20022;-71
2023/10/14 00:41:26;;;;;;;1.95;1.45;;;24.30;52.00;;;;;;5002671;28;20493;-71
2023/10/14 00:43:53;;;;;;;2.13;1.60;;;24.30;52.10;;;;;;4999873;28;20026;-71
2023/10/14 00:46:23;;;;;;;2.63;1.80;;;24.30;52.10;;;;;;4999397;28;20489;-69
2023/10/14 00:48:51;;;;;;;2.95;1.63;;;24.30;52.10;;;;;;5003030;28;20054;-68
2023/10/14 00:51:19;;;;;;;2.40;1.60;;;24.30;52.10;;;;;;5002117;28;20030;-68
2023/10/14 00:54:02;;;;;;;2.47;1.80;;;24.30;52.10;;;;;;5001981;28;20081;-68
2023/10/14 00:56:29;;;;;;;2.90;1.60;;;24.30;52.10;;;;;;5001575;28;20018;-68
2023/10/14 00:58:58;;;;;;;2.60;1.70;;;24.30;52.10;;;;;;4999719;28;20035;-68
2023/10/14 01:01:48;;;;;;;2.40;1.50;;;24.30;52.20;;;;;;5001270;28;20029;-68
2023/10/14 01:04:21;;;;;;;2.58;1.60;;;24.30;52.10;;;;;;5009037;28;20105;-67
2023/10/14 01:09:33;;;;;;;2.28;1.58;;;24.30;52.20;;;;;;5002886;28;20509;-62
2023/10/14 01:12:16;;;;;;;2.40;1.70;;;24.30;52.20;;;;;;5002031;28;20025;-64
2023/10/14 01:14:45;;;;;;;2.53;1.70;;;24.30;52.20;;;;;;4998198;28;20520;-63
2023/10/14 01:19:52;;;;;;;2.70;1.80;;;24.30;52.20;;;;;;5001183;28;20096;-62
2023/10/14 01:22:17;;;;;;;2.53;1.65;;;24.30;52.20;;;;;;5000403;28;20030;-65
2023/10/14 01:24:43;;;;;;;2.70;1.70;;;24.30;52.20;;;;;;5000746;28;20088;-63
2023/10/14 01:27:10;;;;;;;2.95;1.60;;;24.30;52.20;;;;;;5001346;28;20034;-62
2023/10/14 01:29:40;;;;;;;2.30;1.55;;;24.30;52.20;;;;;;4998002;28;20061;-63
2023/10/14 01:32:25;;;;;;;2.75;1.75;;;24.30;52.20;;;;;;5000631;28;20071;-64
2023/10/14 01:35:02;;;;;;;2.10;1.50;;;24.30;52.30;;;;;;5002735;28;20034;-62
2023/10/14 01:37:34;;;;;;;2.38;1.65;;;24.30;52.30;;;;;;5000990;28;20117;-62
2023/10/14 01:40:14;;;;;;;2.83;1.90;;;24.20;52.20;;;;;;5001624;28;20478;-63
2023/10/14 01:42:40;;;;;;;2.50;1.70;;;24.20;52.20;;;;;;5000595;28;20081;-63
2023/10/14 01:45:06;;;;;;;2.80;1.67;;;24.20;52.30;;;;;;5000462;28;20425;-71
2023/10/14 01:47:32;;;;;;;2.22;1.60;;;24.20;52.20;;;;;;4999345;28;20061;-72
2023/10/14 01:50:00;;;;;;;2.03;1.50;;;24.20;52.30;;;;;;5001410;28;20481;-72
2023/10/14 01:52:25;;;;;;;2.22;1.60;;;24.20;52.30;;;;;;4999909;28;20042;-71
2023/10/14 01:54:51;;;;;;;2.40;1.63;;;24.20;52.30;;;;;;5001713;28;20056;-62
2023/10/14 01:57:17;;;;;;;1.90;1.30;;;24.20;52.30;;;;;;4999108;28;20037;-63
2023/10/14 01:59:46;;;;;;;2.15;1.70;;;24.20;52.30;;;;;;4999928;28;20053;-63
2023/10/14 02:02:15;;;;;;;2.58;1.70;;;24.20;52.30;;;;;;4998718;28;20041;-62
2023/10/14 02:04:45;;;;;;;2.67;1.70;;;24.20;52.30;;;;;;5000163;28;20344;-64
2023/10/14 02:07:21;;;;;;;2.33;1.60;;;24.20;52.30;;;;;;5000496;28;20034;-62
2023/10/14 02:09:48;;;;;;;2.50;1.50;;;24.20;52.30;;;;;;5001387;28;20459;-63
2023/10/14 02:12:13;;;;;;;2.35;1.67;;;24.20;52.30;;;;;;5000336;28;20030;-63
2023/10/14 02:14:44;;;;;;;2.20;1.60;;;24.20;52.30;;;;;;4998992;28;20474;-65
2023/10/14 02:17:11;;;;;;;2.63;1.73;;;24.20;52.30;;;;;;4999033;28;20030;-69
2023/10/14 02:19:36;;;;;;;2.33;1.48;;;24.20;52.30;;;;;;5008273;28;20048;-69
2023/10/14 02:22:11;;;;;;;2.00;1.50;;;24.20;52.30;;;;;;4999081;28;20034;-68
2023/10/14 02:24:37;;;;;;;2.10;1.52;;;24.20;52.30;;;;;;4999220;28;20482;-68
2023/10/14 02:27:10;;;;;;;2.10;1.42;;;24.20;52.30;;;;;;4998370;28;20045;-69
2023/10/14 02:29:35;;;;;;;2.10;1.50;;;24.20;52.30;;;;;;4998583;28;20478;-68
2023/10/14 02:32:01;;;;;;;2.53;1.55;;;24.20;52.30;;;;;;4999940;28;20033;-69
2023/10/14 02:34:27;;;;;;;2.70;1.75;;;24.20;52.30;;;;;;4999069;28;20018;-69
2023/10/14 02:36:53;;;;;;;2.60;1.75;;;24.10;52.30;;;;;;4999439;28;20496;-70
2023/10/14 02:39:26;;;;;;;2.22;1.58;;;24.10;52.80;;;;;;4999517;28;20022;-68
2023/10/14 02:41:59;;;;;;;1.83;1.30;;;24.10;52.40;;;;;;5002088;28;20049;-69
2023/10/14 02:44:32;;;;;;;2.35;1.50;;;24.20;52.40;;;;;;4996468;28;20118;-68
2023/10/14 02:47:08;;;;;;;2.58;1.45;;;24.10;52.30;;;;;;4996872;28;20073;-69
2023/10/14 02:49:36;;;;;;;2.25;1.60;;;24.10;52.40;;;;;;5000117;28;20049;-68
2023/10/14 02:52:08;;;;;;;2.35;1.42;;;24.10;52.30;;;;;;4998526;28;20376;-69
2023/10/14 02:54:35;;;;;;;2.45;1.60;;;24.10;52.40;;;;;;4997603;28;20022;-70
2023/10/14 02:57:01;;;;;;;2.33;1.60;;;24.10;52.40;;;;;;4998084;28;20030;-63
2023/10/14 03:07:29;;;;;;;;;;;24.10;52.40;;;;;;5000235;28;20034;-65
2023/10/14 03:09:58;;;;;;;1.83;1.42;;;24.10;52.40;;;;;;4999711;28;20377;-64
2023/10/14 03:12:25;;;;;;;2.28;1.50;;;24.10;52.40;;;;;;4998806;28;20065;-65
2023/10/14 03:14:54;;;;;;;2.20;1.35;;;24.10;52.40;;;;;;4997813;28;20052;-65
2023/10/14 03:17:39;;;;;;;2.25;1.40;;;24.10;52.40;;;;;;4997592;28;20426;-65
2023/10/14 03:22:56;;;;;;;1.98;1.40;;;24.10;52.40;;;;;;5000622;28;20037;-65
2023/10/14 03:25:23;;;;;;;2.65;1.50;;;24.10;52.40;;;;;;4997021;28;20026;-71
2023/10/14 03:27:59;;;;;;;1.95;1.40;;;24.10;52.40;;;;;;4998613;28;20037;-71
2023/10/14 03:30:25;;;;;;;1.95;1.50;;;24.10;52.40;;;;;;4998266;28;20038;-71
2023/10/14 03:32:50;;;;;;;2.20;1.40;;;24.10;52.50;;;;;;4998571;28;20041;-72
2023/10/14 03:35:20;;;;;;;1.88;1.48;;;24.00;52.30;;;;;;4997627;28;20026;-71
2023/10/14 03:37:54;;;;;;;2.38;1.50;;;24.10;52.40;;;;;;4999807;28;20080;-72
2023/10/14 03:43:10;;;;;;;1.40;1.20;;;24.10;52.40;;;;;;4998515;28;20548;-71
2023/10/14 03:45:47;;;;;;;2.17;1.33;;;24.10;52.30;;;;;;4997638;28;20081;-74
2023/10/14 03:48:13;;;;;;;1.88;1.40;;;24.10;52.40;;;;;;4999804;28;20464;-73
2023/10/14 03:50:40;;;;;;;2.35;1.52;;;24.00;52.30;;;;;;4999714;28;20113;-71
2023/10/14 03:53:06;;;;;;;2.22;1.40;;;24.10;52.40;;;;;;4997156;28;20057;-72
2023/10/14 03:55:31;;;;;;;2.03;1.52;;;24.00;52.30;;;;;;4999562;28;20080;-72
2023/10/14 03:58:03;;;;;;;2.00;1.35;;;24.00;52.40;;;;;;4995732;28;20073;-71
2023/10/14 04:00:39;;;;;;;2.63;1.40;;;24.00;52.30;;;;;;4997718;28;20023;-71
2023/10/14 04:03:14;;;;;;;2.58;1.75;;;24.00;52.30;;;;;;4997342;28;20125;-72
2023/10/14 04:05:52;;;;;;;1.98;1.45;;;24.00;52.20;;;;;;5000797;28;20556;-69
2023/10/14 04:08:25;;;;;;;2.10;1.40;;;24.00;52.20;;;;;;4998434;28;20026;-69
2023/10/14 04:11:03;;;;;;;1.95;1.30;;;24.00;52.20;;;;;;4998876;28;20030;-69
2023/10/14 04:13:34;;;;;;;2.22;1.60;;;24.00;52.20;;;;;;5015523;28;20034;-69
2023/10/14 04:15:59;;;;;;;2.10;1.40;;;24.00;52.70;;;;;;4997132;28;20033;-65
2023/10/14 04:18:25;;;;;;;1.90;1.40;;;24.00;52.20;;;;;;4996473;28;20470;-64
2023/10/14 04:21:14;;;;;;;2.22;1.40;;;24.00;52.10;;;;;;4997305;28;20037;-62
2023/10/14 04:24:08;;;;;;;1.57;1.30;;;24.00;52.10;;;;;;4998428;28;20029;-62
2023/10/14 04:26:35;;;;;;;2.03;1.40;;;24.00;52.00;;;;;;4997137;28;20031;-64
2023/10/14 04:29:03;;;;;;;2.05;1.40;;;23.90;51.90;;;;;;4997546;28;20043;-63
2023/10/14 04:31:41;;;;;;;2.45;1.60;;;23.90;51.90;;;;;;4996430;28;20049;-62
2023/10/14 04:34:10;;;;;;;1.95;1.40;;;24.00;52.00;;;;;;4999344;28;20065;-64
2023/10/14 04:36:36;;;;;;;2.60;1.60;;;23.90;51.90;;;;;;4997187;28;20030;-71
2023/10/14 04:39:15;;;;;;;1.80;1.30;;;24.00;52.00;;;;;;4997767;28;20034;-71
2023/10/14 04:41:47;;;;;;;1.77;1.43;;;23.90;51.90;;;;;;4997987;28;20023;-70
2023/10/14 04:44:13;;;;;;;2.20;1.55;;;23.90;51.90;;;;;;5001673;28;20033;-70
2023/10/14 04:47:01;;;;;;;2.33;1.60;;;24.00;51.90;;;;;;5001217;28;20014;-69
2023/10/14 04:49:37;;;;;;;1.95;1.30;;;23.90;51.70;;;;;;5001603;28;20061;-69
2023/10/14 04:52:06;;;;;;;2.33;1.63;;;23.90;51.80;;;;;;5000338;28;20514;-70
2023/10/14 04:54:35;;;;;;;2.15;1.45;;;23.90;51.80;;;;;;5000860;28;20097;-69
2023/10/14 04:57:19;;;;;;;2.35;1.50;;;23.90;51.80;;;;;;5002193;28;20414;-69
2023/10/14 04:59:45;;;;;;;2.10;1.45;;;23.90;51.80;;;;;;4999230;28;20479;-69
2023/10/14 05:02:15;;;;;;;2.30;1.40;;;23.90;51.80;;;;;;5000296;28;20023;-69
2023/10/14 05:04:41;;;;;;;;;;;23.90;51.90;;;;;;5001359;28;20573;-70
2023/10/14 05:07:11;;;;;;;2.42;1.40;;;23.90;51.90;;;;;;5000703;28;20299;-70
2023/10/14 05:09:39;;;;;;;1.70;1.23;;;23.90;51.90;;;;;;5002670;28;20077;-69
2023/10/14 05:12:08;;;;;;;2.67;1.50;;;23.90;52.00;;;;;;5001596;28;20486;-70
2023/10/14 05:14:36;;;;;;;2.22;1.50;;;23.90;52.00;;;;;;5001787;28;20504;-69
2023/10/14 05:17:14;;;;;;;2.00;1.30;;;23.90;52.00;;;;;;5002582;28;20518;-64
2023/10/14 05:19:44;;;;;;;2.28;1.50;;;23.90;52.00;;;;;;5001076;28;20727;-63
2023/10/14 05:22:59;;;;;;;2.28;1.42;;;23.90;52.00;;;;;;5001464;28;21012;-63
2023/10/14 05:25:04;;;;;;;2.15;1.50;;;23.90;52.10;;;;;;5000907;28;20486;-71
2023/10/14 05:27:45;;;;;;;1.90;1.38;;;23.90;52.10;;;;;;5001431;28;20097;-71
2023/10/14 05:30:15;;;;;;;2.60;1.45;;;23.90;52.10;;;;;;4998376;28;20026;-71
2023/10/14 05:32:43;;;;;;;1.88;1.45;;;23.90;52.10;;;;;;5003783;28;20078;-71
2023/10/14 05:35:10;;;;;;;1.60;1.20;;;23.80;52.10;;;;;;5001302;28;20030;-71
2023/10/14 05:37:40;;;;;;;2.05;1.40;;;23.90;52.10;;;;;;5001333;28;20129;-72
2023/10/14 05:40:13;;;;;;;2.13;1.40;;;23.90;52.10;;;;;;5000925;28;20061;-71
2023/10/14 05:42:43;;;;;;;3.20;1.50;;;23.80;52.00;;;;;;5001512;28;20351;-71
2023/10/14 05:45:11;;;;;;;2.67;1.40;;;23.90;52.10;;;;;;4998945;28;20015;-71
2023/10/14 05:47:37;;;;;;;2.22;1.40;;;23.80;52.10;;;;;;5001437;28;20026;-72
2023/10/14 05:50:08;;;;;;;1.98;1.30;;;23.80;52.10;;;;;;4999325;28;20446;-69
2023/10/14 05:52:34;;;;;;;2.00;1.38;;;23.80;52.10;;;;;;5002929;28;20045;-69
2023/10/14 05:55:05;;;;;;;1.85;1.30;;;23.80;52.10;;;;;;4998563;28;20474;-69
2023/10/14 05:57:34;;;;;;;2.13;1.35;;;23.80;52.10;;;;;;5001163;28;20022;-69
2023/10/14 06:00:01;;;;;;;1.98;1.35;;;23.80;52.10;;;;;;4998068;28;20030;-69
2023/10/14 06:02:27;;;;;;;2.67;1.58;;;23.80;52.10;;;;;;5000175;28;20055;-69
2023/10/14 06:04:52;;;;;;;2.17;1.40;;;23.80;52.10;;;;;;5000689;28;20145;-68
2023/10/14 06:07:18;;;;;;;2.00;1.23;;;23.80;52.10;;;;;;5001733;28;20033;-69
2023/10/14 06:09:45;;;;;;;2.13;1.40;;;23.80;52.10;;;;;;4997646;28;20041;-69
2023/10/14 06:12:16;;;;;;;1.85;1.25;;;23.80;52.10;;;;;;5000617;28;20479;-69
2023/10/14 06:14:46;;;;;;;2.10;1.30;;;23.80;52.20;;;;;;4999179;28;20473;-69
2023/10/14 06:17:13;;;;;;;2.38;1.38;;;23.80;52.10;;;;;;4998889;28;20389;-70
2023/10/14 06:19:40;;;;;;;1.80;1.40;;;23.80;52.10;;;;;;5015512;28;20031;-69
2023/10/14 06:22:07;;;;;;;1.92;1.30;;;23.80;52.10;;;;;;5000146;28;20022;-70
2023/10/14 06:24:34;;;;;;;2.30;1.40;;;23.80;52.10;;;;;;5017427;28;20041;-70
2023/10/14 06:27:09;;;;;;;2.15;1.50;;;23.80;52.10;;;;;;4998411;28;20029;-64
2023/10/14 06:29:35;;;;;;;2.08;1.50;;;23.80;52.10;;;;;;5000692;28;20065;-65
2023/10/14 06:32:03;;;;;;;2.55;1.30;;;23.80;52.00;;;;;;4999738;28;20048;-64
2023/10/14 06:34:31;;;;;;;2.03;1.30;;;23.80;52.00;;;;;;4998071;28;20319;-64
2023/10/14 06:37:01;;;;;;;1.50;1.20;;;23.80;52.10;;;;;;5000100;28;20042;-63
2023/10/14 06:39:26;;;;;;;;;;;23.80;52.10;;;;;;4999362;28;20466;-63
2023/10/14 06:41:55;;;;;;;2.08;1.50;;;23.80;52.10;;;;;;4998614;28;19921;-62
2023/10/14 06:44:27;;;;;;;1.77;1.30;;;23.80;52.00;;;;;;4998529;28;20475;-64
2023/10/14 06:46:56;;;;;;;2.30;1.30;;;23.70;52.10;;;;;;4998643;28;20461;-62
2023/10/14 06:49:32;;;;;;;1.98;1.30;;;23.80;52.00;;;;;;4999914;28;20061;-61
2023/10/14 06:51:58;;;;;;;2.05;1.45;;;23.80;52.10;;;;;;5001056;28;20484;-61
2023/10/14 06:54:28;;;;;;;2.20;1.58;;;23.80;52.00;;;;;;4997614;28;20482;-62
2023/10/14 06:56:54;;;;;;;1.98;1.45;;;23.80;52.00;;;;;;5012447;28;20030;-67
2023/10/14 06:59:21;;;;;;;2.22;1.52;;;23.80;52.10;;;;;;4999159;28;20489;-67
2023/10/14 07:01:47;;;;;;;2.03;1.27;;;23.80;52.10;;;;;;4996072;28;20113;-66
2023/10/14 07:04:12;;;;;;;2.90;1.42;;;23.80;52.10;;;;;;4999995;28;20105;-66
2023/10/14 07:06:43;;;;;;;2.15;1.35;;;23.70;52.00;;;;;;5000129;28;20083;-66
2023/10/14 07:09:17;;;;;;;2.05;1.45;;;23.80;52.10;;;;;;4998949;28;20022;-67
2023/10/14 07:11:46;;;;;;;2.85;1.50;;;23.80;52.10;;;;;;4999112;28;20597;-66
2023/10/14 07:14:12;;;;;;;2.20;1.50;;;23.80;52.10;;;;;;4997290;28;20045;-66
2023/10/14 07:16:38;;;;;;;2.25;1.52;;;23.80;52.20;;;;;;4997600;28;20030;-66
2023/10/14 07:19:03;;;;;;;2.13;1.50;;;23.70;52.10;;;;;;4998061;28;20489;-67
2023/10/14 07:21:29;;;;;;;2.67;1.30;;;23.70;52.20;;;;;;5000049;28;20054;-67
2023/10/14 07:23:58;;;;;;;2.15;1.40;;;23.70;52.20;;;;;;4999813;28;20101;-67
2023/10/14 07:26:29;;;;;;;1.80;1.40;;;23.70;52.20;;;;;;4997292;28;20398;-67
2023/10/14 07:28:56;;;;;;;2.03;1.30;;;23.70;52.20;;;;;;4998205;28;20069;-67
2023/10/14 07:31:23;;;;;;;2.00;1.42;;;23.70;52.20;;;;;;4998014;28;20050;-66
2023/10/14 07:33:49;;;;;;;2.33;1.33;;;23.70;52.20;;;;;;5001181;28;20561;-67
2023/10/14 07:36:15;;;;;;;1.90;1.40;;;23.70;52.20;;;;;;5000897;28;20117;-69
2023/10/14 07:38:44;;;;;;;2.67;1.48;;;23.70;52.20;;;;;;4998858;28;20107;-70
2023/10/14 07:41:11;;;;;;;1.77;1.30;;;23.70;52.20;;;;;;4996843;28;20084;-70
2023/10/14 07:43:36;;;;;;;1.95;1.42;;;23.70;52.20;;;;;;4999715;28;20526;-70
2023/10/14 07:46:03;;;;;;;2.30;1.50;;;23.70;52.20;;;;;;4999029;28;20046;-64
2023/10/14 07:48:29;;;;;;;2.20;1.45;;;23.70;52.20;;;;;;5000452;28;20490;-62
2023/10/14 07:50:58;;;;;;;1.88;1.42;;;23.70;52.20;;;;;;4997432;28;20065;-62
2023/10/14 07:53:24;;;;;;;1.98;1.33;;;23.70;52.20;;;;;;4998752;28;20474;-62
2023/10/14 07:55:53;;;;;;;2.17;1.40;;;23.70;52.30;;;;;;5012860;28;20068;-61
2023/10/14 07:58:24;;;;;;;2.42;1.50;;;23.70;52.20;;;;;;4999433;28;20034;-61
2023/10/14 08:00:50;;;;;;;2.05;1.48;;;23.70;52.20;;;;;;4997234;28;20108;-63
2023/10/14 08:03:23;;;;;;;2.80;1.60;;;23.70;52.20;;;;;;4996848;28;20088;-64
2023/10/14 08:05:54;;;;;;;1.90;1.35;;;23.70;52.20;;;;;;5001006;28;20026;-62
2023/10/14 08:08:21;;;;;;;2.00;1.40;;;23.70;52.30;;;;;;4998399;28;20156;-62
2023/10/14 08:10:49;;;;;;;2.03;1.40;;;23.70;52.30;;;;;;4995664;28;20048;-62
2023/10/14 08:13:22;;;;;;;1.70;1.40;;;23.70;52.30;;;;;;4996195;28;20901;-62
2023/10/14 08:15:52;;;;;;;2.47;1.30;;;23.70;52.30;;;;;;4997978;28;20064;-61
2023/10/14 08:18:24;;;;;;;2.58;1.40;;;23.70;52.30;;;;;;4999822;28;20105;-63
2023/10/14 08:20:53;;;;;;;2.25;1.58;;;23.70;52.30;;;;;;5002432;28;20023;-63
2023/10/14 08:23:20;;;;;;;2.42;1.60;;;23.70;52.30;;;;;;5002847;28;20462;-62
2023/10/14 08:25:47;;;;;;;3.00;1.50;;;23.70;52.30;;;;;;5018274;28;20041;-62
2023/10/14 08:28:12;;;;;;;2.03;1.33;;;23.70;52.20;;;;;;5001117;28;20088;-62
2023/10/14 08:30:45;;;;;;;1.67;1.40;;;23.70;52.30;;;;;;5002713;28;20030;-62
2023/10/14 08:33:14;;;;;;;1.90;1.33;;;23.70;52.30;;;;;;5001120;28;20421;-61
2023/10/14 08:35:42;;;;;;;2.63;1.42;;;23.70;52.30;;;;;;5000723;28;20034;-64
2023/10/14 08:38:13;;;;;;;1.80;1.30;;;23.70;52.30;;;;;;5002797;28;20548;-63
2023/10/14 08:40:43;;;;;;;2.00;1.40;;;23.70;52.30;;;;;;5001549;28;20018;-62
2023/10/14 08:43:10;;;;;;;2.55;1.55;;;23.70;52.30;;;;;;5001840;28;20137;-61
2023/10/14 08:45:39;;;;;;;2.53;1.42;;;23.70;52.30;;;;;;5002471;28;20080;-65
2023/10/14 08:48:08;;;;;;;2.20;1.40;;;23.70;52.40;;;;;;4999657;28;20042;-65
2023/10/14 08:50:35;;;;;;;1.92;1.35;;;23.70;52.30;;;;;;5001356;28;20034;-64
2023/10/14 08:53:09;;;;;;;2.00;1.50;;;23.70;52.40;;;;;;5002254;28;20466;-64
2023/10/14 08:55:37;;;;;;;2.42;1.40;;;23.70;52.40;;;;;;5001258;28;20563;-70
2023/10/14 08:58:05;;;;;;;2.10;1.50;;;23.70;52.40;;;;;;5000847;28;20038;-70
2023/10/14 09:00:36;;;;;;;2.08;1.50;;;23.70;52.40;;;;;;5002528;28;20102;-70
2023/10/14 09:03:06;;;;;;;1.73;1.23;;;23.70;52.40;;;;;;5000830;28;20477;-70
2023/10/14 09:05:33;;;;;;;1.85;1.27;;;23.70;52.40;;;;;;5002058;28;20041;-70
2023/10/14 09:07:58;;;;;;;1.90;1.40;;;23.70;52.50;;;;;;5000242;28;20079;-70
2023/10/14 09:10:25;;;;;;;1.92;1.35;;;23.70;52.50;;;;;;5002400;28;20018;-70
2023/10/14 09:12:58;;;;;;;3.08;1.42;;;23.70;52.50;;;;;;5001364;28;20109;-73
2023/10/14 09:15:29;;;;;;;3.67;2.15;;;23.70;52.50;;;;;;5004162;28;20057;-71
2023/10/14 09:17:56;;;;;;;2.58;1.80;;;23.70;52.60;;;;;;4998958;28;20551;-63
2023/10/14 09:20:30;;;;;;;3.20;2.10;;;23.70;52.50;;;;;;5000899;28;20133;-66
2023/10/14 09:23:29;;;;;;;2.75;1.90;;;23.70;52.50;;;;;;5001853;28;20026;-64
2023/10/14 09:26:03;;;;;;;3.08;2.03;;;23.70;52.40;;;;;;4998120;28;20021;-63
2023/10/14 09:28:35;;;;;;;3.28;2.10;;;23.80;52.40;;;;;;5002285;28;20030;-63
2023/10/14 09:31:08;;;;;;;2.65;1.80;;;23.80;52.30;;;;;;5001462;28;20192;-64
2023/10/14 09:33:36;;;;;;;3.40;2.22;;;23.80;52.30;;;;;;4998070;28;20035;-64
2023/10/14 09:36:11;;;;;;;3.10;2.00;;;23.80;52.40;;;;;;4999960;28;20038;-64
2023/10/14 09:38:38;;;;;;;3.33;2.00;;;23.80;52.40;;;;;;5002026;28;20109;-64
2023/10/14 09:41:05;;;;;;;3.08;1.90;;;23.90;53.00;;;;;;5001236;28;20022;-62
2023/10/14 09:43:39;;;;;;;2.92;1.90;;;23.90;52.50;;;;;;4998878;28;20588;-62
2023/10/14 09:46:08;;;;;;;2.70;1.80;;;23.90;52.50;;;;;;4999387;28;20026;-63
2023/10/14 09:48:35;;;;;;;2.60;1.70;;;23.90;53.00;;;;;;5000688;28;20133;-63
2023/10/14 09:51:03;;;;;;;2.78;1.83;;;23.90;52.50;;;;;;4998990;28;20045;-62
2023/10/14 09:53:32;;;;;;;3.10;1.80;;;23.90;52.50;;;;;;5000166;28;20038;-62
2023/10/14 09:56:18;;;;;;;2.35;1.70;;;23.90;52.50;;;;;;4999107;28;20382;-66
2023/10/14 09:58:46;;;;;;;2.75;1.75;;;23.90;52.40;;;;;;4998501;28;20057;-66
2023/10/14 10:01:18;;;;;;;2.80;1.67;;;23.90;52.40;;;;;;4999086;28;20105;-66
2023/10/14 10:03:49;;;;;;;2.58;1.58;;;23.90;52.30;;;;;;5001319;28;20382;-66
2023/10/14 10:06:47;;;;;;;2.55;1.80;;;23.90;52.30;;;;;;5002981;28;20025;-67
2023/10/14 10:09:40;;;;;;;3.80;1.65;;;23.90;52.30;;;;;;5001064;28;20030;-67
2023/10/14 10:12:10;;;;;;;3.20;1.70;;;23.90;52.30;;;;;;5000987;28;20026;-66
2023/10/14 10:14:48;;;;;;;2.33;1.55;;;24.00;52.40;;;;;;5001147;28;20489;-64
2023/10/14 10:17:15;;;;;;;2.40;1.52;;;24.00;52.40;;;;;;4999288;28;20470;-64
2023/10/14 10:20:08;;;;;;;2.50;1.60;;;24.00;52.30;;;;;;4999935;28;20034;-64
2023/10/14 10:22:44;;;;;;;2.42;1.58;;;24.00;52.30;;;;;;5000344;28;20018;-64
2023/10/14 10:25:15;;;;;;;2.20;1.45;;;24.00;52.30;;;;;;4999312;28;20081;-64
2023/10/14 10:27:52;;;;;;;2.70;1.70;;;24.00;52.30;;;;;;5000059;28;20040;-64
2023/10/14 10:30:19;;;;;;;2.95;1.80;;;24.00;52.20;;;;;;4997831;28;20475;-65
2023/10/14 10:32:50;;;;;;;2.85;1.70;;;24.00;52.20;;;;;;4999570;28;20113;-64
2023/10/14 10:35:18;;;;;;;3.33;2.00;;;24.10;52.20;;;;;;4998668;28;20125;-65
2023/10/14 10:37:55;;;;;;;2.85;1.88;;;24.10;52.70;;;;;;4999972;28;20136;-64
2023/10/14 10:40:26;;;;;;;3.45;2.10;;;24.10;52.10;;;;;;4998396;28;20846;-65
2023/10/14 10:43:06;;;;;;;2.58;1.73;;;24.10;52.10;;;;;;4999924;28;20030;-64
2023/10/14 10:45:35;;;;;;;2.75;1.73;;;24.10;52.10;;;;;;4996797;28;20491;-65
2023/10/14 10:48:06;;;;;;;2.90;2.00;;;24.10;52.00;;;;;;4999226;28;20057;-64
2023/10/14 10:50:37;;;;;;;2.80;1.75;;;24.10;52.00;;;;;;5000357;28;20044;-64
2023/10/14 10:53:05;;;;;;;3.97;1.77;;;24.10;51.90;;;;;;4998359;28;20026;-65
2023/10/14 10:55:31;;;;;;;2.50;1.57;;;24.10;51.90;;;;;;4998917;28;20084;-64
2023/10/14 10:58:01;;;;;;;2.85;1.70;;;24.10;51.90;;;;;;4999457;28;20030;-65
2023/10/14 11:00:30;;;;;;;2.75;1.77;;;24.10;51.90;;;;;;4999068;28;20494;-65
2023/10/14 11:02:56;;;;;;;2.40;1.80;;;24.10;51.90;;;;;;4998224;28;20030;-64
2023/10/14 11:05:24;;;;;;;2.40;1.58;;;24.20;52.00;;;;;;5000982;28;20479;-65
2023/10/14 11:07:52;;;;;;;2.30;1.70;;;24.10;51.90;;;;;;5001405;28;20036;-63
2023/10/14 11:10:22;;;;;;;2.78;1.90;;;24.10;51.90;;;;;;4999580;28;20025;-63
2023/10/14 11:12:47;;;;;;;2.40;1.63;;;24.10;51.90;;;;;;5000603;28;20525;-63
2023/10/14 11:15:25;;;;;;;2.70;1.83;;;24.20;52.00;;;;;;4999251;28;20038;-62
2023/10/14 11:17:56;;;;;;;3.03;1.90;;;24.20;52.00;;;;;;5013227;28;20030;-63
2023/10/14 11:20:26;;;;;;;3.72;2.00;;;24.20;52.10;;;;;;5008637;28;20085;-65
2023/10/14 11:22:55;;;;;;;;;;;24.20;52.50;;;;;;5000783;28;20050;-65
2023/10/14 11:25:24;;;;;;;;;;;24.20;52.10;;;;;;5001582;28;19905;-63
2023/10/14 11:27:50;;;;;;;3.88;2.15;;;24.20;52.10;;;;;;4997750;28;20004;-64
2023/10/14 11:30:16;;;;;;;2.55;1.65;;;24.20;52.10;;;;;;4998687;28;20181;-63
2023/10/14 11:32:49;;;;;;;2.75;1.70;;;24.20;52.10;;;;;;4997133;28;20176;-63
2023/10/14 11:35:22;;;;;;;3.00;1.77;;;24.20;52.20;;;;;;4998787;28;20524;-63
2023/10/14 11:37:55;;;;;;;3.00;1.83;;;24.20;52.20;;;;;;4996157;28;20040;-66
2023/10/14 11:40:25;;;;;;;2.53;1.70;;;24.20;52.30;;;;;;4999501;28;20450;-71
2023/10/14 11:42:55;;;;;;;3.17;2.10;;;24.20;52.30;;;;;;5002424;28;20402;-71
2023/10/14 11:45:21;;;;;;;2.90;1.90;;;24.20;52.80;;;;;;4998796;28;20028;-69
2023/10/14 11:47:48;;;;;;;2.95;1.80;;;24.20;52.30;;;;;;4997075;28;20030;-68
2023/10/14 11:50:14;;;;;;;3.05;1.65;;;24.20;52.30;;;;;;5000405;28;20026;-71
2023/10/14 11:52:43;;;;;;;2.65;1.70;;;24.20;52.30;;;;;;5000273;28;20044;-69
2023/10/14 11:55:14;;;;;;;3.83;1.90;;;24.20;52.30;;;;;;5020541;28;20535;-67
2023/10/14 11:57:48;;;;;;;3.15;1.70;;;24.20;52.30;;;;;;5003865;28;20033;-67
2023/10/14 12:00:17;;;;;;;2.70;1.80;;;24.20;52.30;;;;;;5003714;28;20621;-67
2023/10/14 12:02:48;;;;;;;2.17;1.60;;;24.20;52.30;;;;;;5003980;28;20025;-68
2023/10/14 12:05:17;;;;;;;2.38;1.80;;;24.20;52.30;;;;;;5001963;28;20494;-66
2023/10/14 12:07:43;;;;;;;3.05;1.90;;;24.20;52.30;;;;;;5003652;28;20044;-67
2023/10/14 12:10:10;;;;;;;2.90;1.92;;;24.20;52.30;;;;;;5001609;28;20129;-67
2023/10/14 12:12:39;;;;;;;2.72;1.65;;;24.20;52.30;;;;;;5001591;28;20439;-66
2023/10/14 12:15:08;;;;;;;2.65;1.70;;;24.20;52.30;;;;;;5002633;28;20038;-67
2023/10/14 12:17:34;;;;;;;3.05;1.80;;;24.20;52.30;;;;;;5001490;28;20034;-63
2023/10/14 12:20:10;;;;;;;2.97;1.80;;;24.20;52.30;;;;;;5002540;28;20072;-63
2023/10/14 12:22:37;;;;;;;2.05;1.60;;;24.20;52.20;;;;;;5001384;28;20022;-65
2023/10/14 12:25:04;;;;;;;2.33;1.65;;;24.20;52.30;;;;;;5002006;28;20022;-63
2023/10/14 12:27:29;;;;;;;2.75;1.77;;;24.20;52.30;;;;;;5002978;28;20080;-67
2023/10/14 12:29:59;;;;;;;4.63;1.80;;;24.20;52.30;;;;;;5002880;28;20483;-67
2023/10/14 12:32:26;;;;;;;3.50;1.90;;;24.20;52.30;;;;;;5000841;28;20640;-67
2023/10/14 12:34:52;;;;;;;3.15;1.80;;;24.20;52.80;;;;;;4997736;28;20042;-66
2023/10/14 12:37:18;;;;;;;2.90;1.70;;;24.20;52.30;;;;;;5000416;28;20133;-64
2023/10/14 12:40:04;;;;;;;3.45;1.90;;;24.20;52.30;;;;;;5002360;28;20098;-66
2023/10/14 12:42:46;;;;;;;3.08;1.75;;;24.20;52.30;;;;;;5002862;28;20029;-66
2023/10/14 12:45:13;;;;;;;2.15;1.60;;;24.20;52.30;;;;;;5001982;28;20030;-66
2023/10/14 12:47:48;;;;;;;2.53;1.58;;;24.20;52.30;;;;;;5003711;28;20370;-67
2023/10/14 12:50:15;;;;;;;2.92;1.75;;;24.20;52.30;;;;;;5002293;28;20025;-68
2023/10/14 12:52:42;;;;;;;2.20;1.40;;;24.20;52.30;;;;;;5010860;28;20414;-69
2023/10/14 12:55:17;;;;;;;2.58;1.60;;;24.20;52.40;;;;;;5003262;28;20549;-68
2023/10/14 12:57:44;;;;;;;2.00;1.40;;;24.20;52.30;;;;;;5011058;28;20029;-69
2023/10/14 13:00:17;;;;;;;2.15;1.60;;;24.20;52.30;;;;;;5003486;28;20493;-67
2023/10/14 13:02:45;;;;;;;2.47;1.67;;;24.20;52.30;;;;;;5002958;28;20065;-68
2023/10/14 13:05:18;;;;;;;2.67;1.70;;;24.20;52.30;;;;;;5001500;28;20066;-67
2023/10/14 13:07:45;;;;;;;3.35;1.70;;;24.20;52.40;;;;;;5001695;28;20029;-68
2023/10/14 13:10:11;;;;;;;3.22;1.67;;;24.20;52.40;;;;;;5000995;28;20121;-68
2023/10/14 13:12:38;;;;;;;3.40;1.88;;;24.20;52.50;;;;;;5005184;28;20069;-67
2023/10/14 13:15:07;;;;;;;3.08;1.85;;;24.20;52.50;;;;;;5001478;28;20034;-69
2023/10/14 13:17:35;;;;;;;2.78;1.73;;;24.20;52.40;;;;;;5000906;28;20035;-66
2023/10/14 13:20:01;;;;;;;2.72;1.63;;;24.20;52.40;;;;;;5002513;28;20077;-67
2023/10/14 13:22:29;;;;;;;2.63;1.63;;;24.20;52.40;;;;;;5003121;28;20062;-67
2023/10/14 13:24:54;;;;;;;2.80;1.70;;;24.20;52.40;;;;;;5003108;28;20049;-66